createdAt,value
2018-05-12T00:01:30.397Z,17.30
2018-05-12T00:03:59.202Z,15.53
2018-05-12T00:06:27.250Z,19.07
2018-05-12T00:08:55.375Z,19.60
2018-05-12T00:11:23.417Z,16.63
2018-05-12T00:13:51.470Z,18.37
2018-05-12T00:16:19.522Z,15.03
2018-05-12T00:18:47.562Z,15.70
2018-05-12T00:21:15.615Z,17.83
2018-05-12T00:23:43.681Z,17.03
2018-05-12T00:26:11.730Z,17.17
2018-05-12T00:28:39.779Z,18.33
2018-05-12T00:31:07.821Z,18.63
2018-05-12T00:33:36.638Z,18.07
2018-05-12T00:36:04.724Z,20.00
2018-05-12T00:38:32.861Z,20.77
2018-05-12T00:41:00.911Z,18.80
2018-05-12T00:43:28.954Z,18.27
2018-05-12T00:45:57.779Z,18.83
2018-05-12T00:48:25.818Z,18.80
2018-05-12T00:50:53.870Z,19.77
2018-05-12T00:53:21.913Z,19.83
2018-05-12T00:55:50.742Z,18.47
2018-05-12T00:58:18.778Z,20.10
2018-05-12T01:00:46.827Z,18.70
2018-05-12T01:03:14.861Z,19.23
2018-05-12T01:05:43.679Z,20.80
2018-05-12T01:08:12.499Z,19.90
2018-05-12T01:10:40.544Z,18.17
2018-05-12T01:13:08.573Z,18.53
2018-05-12T01:15:36.845Z,17.33
2018-05-12T01:18:04.886Z,20.80
2018-05-12T01:20:33.019Z,20.33
2018-05-12T01:23:01.066Z,19.67
2018-05-12T01:25:30.634Z,21.80
2018-05-12T01:27:58.682Z,22.03
2018-05-12T01:30:26.718Z,19.53
2018-05-12T01:32:54.765Z,21.17
2018-05-12T01:35:22.821Z,20.57
2018-05-12T01:37:50.866Z,18.97
2018-05-12T01:40:18.914Z,19.30
2018-05-12T01:42:47.722Z,18.37
2018-05-12T01:45:15.769Z,23.47
2018-05-12T01:47:43.819Z,20.27
2018-05-12T01:50:11.870Z,18.80
2018-05-12T01:52:40.683Z,17.83
2018-05-12T01:55:08.729Z,18.87
2018-05-12T01:57:36.770Z,23.23
2018-05-12T02:00:04.815Z,21.30
2018-05-12T02:02:33.769Z,20.07
2018-05-12T02:05:01.823Z,22.13
2018-05-12T02:07:29.914Z,20.03
2018-05-12T02:09:57.953Z,18.87
2018-05-12T02:12:25.994Z,21.07
2018-05-12T02:14:54.039Z,22.73
2018-05-12T02:17:22.851Z,19.93
2018-05-12T02:19:51.664Z,20.03
2018-05-12T02:22:20.479Z,19.63
2018-05-12T02:24:48.515Z,20.07
2018-05-12T02:27:16.566Z,20.27
2018-05-12T02:29:44.620Z,19.63
2018-05-12T02:32:13.423Z,19.60
2018-05-12T02:34:41.472Z,20.50
2018-05-12T02:37:09.518Z,23.10
2018-05-12T02:39:37.557Z,19.63
2018-05-12T02:42:06.370Z,18.70
2018-05-12T02:44:34.502Z,19.63
2018-05-12T02:47:02.555Z,20.00
2018-05-12T02:49:30.591Z,22.83
2018-05-12T02:51:58.638Z,20.07
2018-05-12T02:54:26.687Z,21.47
2018-05-12T02:56:55.502Z,19.73
2018-05-12T02:59:23.543Z,20.73
2018-05-12T03:01:51.597Z,21.73
2018-05-12T03:04:19.639Z,20.83
2018-05-12T03:06:48.466Z,21.90
2018-05-12T03:09:16.515Z,21.20
2018-05-12T03:11:45.330Z,23.80
2018-05-12T03:14:14.143Z,22.90
2018-05-12T03:16:43.051Z,20.90
2018-05-12T03:19:11.086Z,25.73
2018-05-12T03:21:39.146Z,24.00
2018-05-12T03:24:07.193Z,24.90
2018-05-12T03:26:37.160Z,23.53
2018-05-12T03:29:05.206Z,24.93
2018-05-12T03:31:34.023Z,24.50
2018-05-12T03:34:02.066Z,25.10
2018-05-12T03:36:30.139Z,26.20
2018-05-12T03:38:58.165Z,27.03
2018-05-12T03:41:26.221Z,26.23
2018-05-12T03:43:54.261Z,25.90
2018-05-12T03:46:22.326Z,26.80
2018-05-12T03:48:50.377Z,24.50
2018-05-12T03:51:18.422Z,26.50
2018-05-12T03:53:46.458Z,24.50
2018-05-12T03:56:15.265Z,22.60
2018-05-12T03:58:44.084Z,25.40
2018-05-12T04:01:12.186Z,25.07
2018-05-12T04:03:40.237Z,28.00
2018-05-12T04:06:26.970Z,25.63
2018-05-12T04:12:23.993Z,27.83
2018-05-12T04:14:52.032Z,26.20
2018-05-12T04:17:20.859Z,26.43
2018-05-12T04:19:48.898Z,27.70
2018-05-12T04:22:16.950Z,26.43
2018-05-12T04:24:45.019Z,26.37
2018-05-12T04:27:13.060Z,26.93
2018-05-12T04:29:42.718Z,28.20
2018-05-12T04:32:10.754Z,26.90
2018-05-12T04:34:38.811Z,28.47
2018-05-12T04:37:06.874Z,30.03
2018-05-12T04:39:34.938Z,32.10
2018-05-12T04:42:03.750Z,26.73
2018-05-12T04:44:32.568Z,29.30
2018-05-12T04:47:00.618Z,33.93
2018-05-12T04:49:29.434Z,32.03
2018-05-12T04:51:58.259Z,29.50
2018-05-12T04:54:26.310Z,30.10
2018-05-12T04:56:54.357Z,29.07
2018-05-12T04:59:22.399Z,29.60
2018-05-12T05:01:50.471Z,25.83
2018-05-12T05:04:19.283Z,25.77
2018-05-12T05:06:47.386Z,26.40
2018-05-12T05:09:15.387Z,26.63
2018-05-12T05:11:43.429Z,30.27
2018-05-12T05:14:12.248Z,25.10
2018-05-12T05:16:40.297Z,24.17
2018-05-12T05:19:09.106Z,23.27
2018-05-12T05:21:37.942Z,22.17
2018-05-12T05:24:05.998Z,23.73
2018-05-12T05:26:34.801Z,27.60
2018-05-12T05:29:03.626Z,23.47
2018-05-12T05:31:31.670Z,21.87
2018-05-12T05:33:59.723Z,26.27
2018-05-12T05:36:27.772Z,28.27
2018-05-12T05:38:55.827Z,28.10
2018-05-12T05:41:23.863Z,26.37
2018-05-12T05:43:51.914Z,25.33
2018-05-12T05:46:20.730Z,22.67
2018-05-12T05:48:48.800Z,24.20
2018-05-12T05:51:17.605Z,26.33
2018-05-12T05:53:46.423Z,20.20
2018-05-12T05:56:14.466Z,23.07
2018-05-12T05:58:42.539Z,22.77
2018-05-12T06:01:10.574Z,22.70
2018-05-12T06:03:38.657Z,22.77
2018-05-12T06:06:06.714Z,24.63
2018-05-12T06:08:34.759Z,25.00
2018-05-12T06:11:02.815Z,21.87
2018-05-12T06:13:30.850Z,25.73
2018-05-12T06:15:58.902Z,21.97
2018-05-12T06:18:26.942Z,22.33
2018-05-12T06:20:55.753Z,25.17
2018-05-12T06:23:24.557Z,22.30
2018-05-12T06:25:52.613Z,20.90
2018-05-12T06:28:20.651Z,22.00
2018-05-12T06:30:48.711Z,23.90
2018-05-12T06:33:16.758Z,24.53
2018-05-12T06:35:44.886Z,23.10
2018-05-12T06:38:12.932Z,25.40
2018-05-12T06:40:40.989Z,23.47
2018-05-12T06:43:09.046Z,24.60
2018-05-12T06:45:37.115Z,24.67
2018-05-12T06:48:05.923Z,22.80
2018-05-12T06:50:33.970Z,25.27
2018-05-12T06:53:02.013Z,23.10
2018-05-12T06:55:30.063Z,56.50
2018-05-12T06:57:59.659Z,27.43
2018-05-12T07:00:27.710Z,23.43
2018-05-12T07:02:55.762Z,24.23
2018-05-12T07:05:23.814Z,22.10
2018-05-12T07:07:51.852Z,21.17
2018-05-12T07:10:19.902Z,21.40
2018-05-12T07:12:48.709Z,21.37
2018-05-12T07:15:17.523Z,20.17
2018-05-12T07:17:45.566Z,22.20
2018-05-12T07:20:13.612Z,21.07
2018-05-12T07:22:41.654Z,20.75
2018-05-12T07:25:10.506Z,20.00
2018-05-12T07:27:38.578Z,19.45
2018-05-12T07:30:06.654Z,22.85
2018-05-12T07:32:34.698Z,19.87
2018-05-12T07:35:02.750Z,18.87
2018-05-12T07:37:30.799Z,20.08
2018-05-12T07:39:58.842Z,17.83
2018-05-12T07:42:26.887Z,17.83
2018-05-12T07:44:54.945Z,19.58
2018-05-12T07:47:23.755Z,18.65
2018-05-12T07:49:51.819Z,20.02
2018-05-12T07:52:20.626Z,19.42
2018-05-12T07:54:49.507Z,19.45
2018-05-12T07:57:17.568Z,19.95
2018-05-12T07:59:45.627Z,21.52
2018-05-12T08:02:13.676Z,19.02
2018-05-12T08:04:41.803Z,21.87
2018-05-12T08:07:09.854Z,19.10
2018-05-12T08:09:38.676Z,22.37
2018-05-12T08:12:06.719Z,22.15
2018-05-12T08:14:34.771Z,24.27
2018-05-12T08:17:02.832Z,31.62
2018-05-12T08:19:30.873Z,24.42
2018-05-12T08:21:58.917Z,26.75
2018-05-12T08:24:26.968Z,25.62
2018-05-12T08:26:55.032Z,25.23
2018-05-12T08:29:23.066Z,27.00
2018-05-12T08:31:51.113Z,24.77
2018-05-12T08:34:19.914Z,25.43
2018-05-12T08:36:48.750Z,24.95
2018-05-12T08:39:16.794Z,26.17
2018-05-12T08:41:45.622Z,25.75
2018-05-12T08:44:13.658Z,26.42
2018-05-12T08:46:41.925Z,29.73
2018-05-12T08:49:09.966Z,29.67
2018-05-12T08:51:38.795Z,28.60
2018-05-12T08:54:06.830Z,27.50
2018-05-12T08:56:34.934Z,30.95
2018-05-12T08:59:03.747Z,26.98
2018-05-12T09:01:31.819Z,25.85
2018-05-12T09:03:59.842Z,24.55
2018-05-12T09:06:27.896Z,26.52
2018-05-12T09:08:55.941Z,27.37
2018-05-12T09:11:23.997Z,26.52
2018-05-12T09:13:52.041Z,24.77
2018-05-12T09:16:20.861Z,23.85
2018-05-12T09:18:48.906Z,27.90
2018-05-12T09:21:16.960Z,26.80
2018-05-12T09:23:45.011Z,24.90
2018-05-12T09:26:13.069Z,27.02
2018-05-12T09:28:42.071Z,24.17
2018-05-12T09:31:10.120Z,23.20
2018-05-12T09:33:38.171Z,28.00
2018-05-12T09:36:06.224Z,21.77
2018-05-12T09:38:34.270Z,21.17
2018-05-12T09:41:02.315Z,20.35
2018-05-12T09:43:31.130Z,21.48
2018-05-12T09:45:59.175Z,22.90
2018-05-12T09:48:27.230Z,23.90
2018-05-12T09:50:55.276Z,20.15
2018-05-12T09:53:23.322Z,21.92
2018-05-12T09:55:51.370Z,19.85
2018-05-12T09:58:19.437Z,21.12
2018-05-12T10:00:47.487Z,23.38
2018-05-12T10:03:15.540Z,22.60
2018-05-12T10:05:43.579Z,21.00
2018-05-12T10:08:11.638Z,21.52
2018-05-12T10:10:39.684Z,23.67
2018-05-12T10:13:07.731Z,23.23
2018-05-12T10:15:35.836Z,22.70
2018-05-12T10:18:03.825Z,18.62
2018-05-12T10:20:31.866Z,21.83
2018-05-12T10:23:00.683Z,19.40
2018-05-12T10:25:28.723Z,20.37
2018-05-12T10:27:56.776Z,16.37
2018-05-12T10:30:24.823Z,18.20
2018-05-12T10:32:53.653Z,14.85
2018-05-12T10:35:21.705Z,17.37
2018-05-12T10:37:50.534Z,14.13
2018-05-12T10:40:18.569Z,15.65
2018-05-12T10:42:46.637Z,13.13
2018-05-12T10:45:14.675Z,13.30
2018-05-12T10:47:43.488Z,12.57
2018-05-12T10:50:11.530Z,13.20
2018-05-12T10:52:39.573Z,12.32
2018-05-12T10:55:07.630Z,13.32
2018-05-12T10:57:36.442Z,13.60
2018-05-12T11:00:04.482Z,18.80
2018-05-12T11:02:32.531Z,13.32
2018-05-12T11:05:00.574Z,9.85
2018-05-12T11:07:29.385Z,11.93
2018-05-12T11:09:57.441Z,9.73
2018-05-12T11:12:25.490Z,10.35
2018-05-12T11:14:53.546Z,9.73
2018-05-12T11:17:21.593Z,10.93
2018-05-12T11:19:49.650Z,10.23
2018-05-12T11:22:17.698Z,15.88
2018-05-12T11:24:45.747Z,9.93
2018-05-12T11:27:13.799Z,10.45
2018-05-12T11:29:41.921Z,15.60
2018-05-12T11:32:09.912Z,11.15
2018-05-12T11:34:37.958Z,9.43
2018-05-12T11:37:06.007Z,11.27
2018-05-12T11:39:34.042Z,10.40
2018-05-12T11:42:02.107Z,10.93
2018-05-12T11:44:30.166Z,9.10
2018-05-12T11:46:58.189Z,11.15
2018-05-12T11:49:26.234Z,9.23
2018-05-12T11:51:54.277Z,9.07
2018-05-12T11:54:22.326Z,8.43
2018-05-12T11:59:23.750Z,8.30
2018-05-12T12:01:51.792Z,8.90
2018-05-12T12:04:19.834Z,9.35
2018-05-12T12:06:48.639Z,9.48
2018-05-12T12:09:17.558Z,9.95
2018-05-12T12:11:45.599Z,8.68
2018-05-12T12:14:13.646Z,9.65
2018-05-12T12:16:41.776Z,8.27
2018-05-12T12:19:09.733Z,9.05
2018-05-12T12:21:37.770Z,9.45
2018-05-12T12:24:06.586Z,10.75
2018-05-12T12:26:34.622Z,9.10
2018-05-12T12:29:02.671Z,8.65
2018-05-12T12:31:30.706Z,10.30
2018-05-12T12:33:58.757Z,12.68
2018-05-12T12:36:26.806Z,12.75
2018-05-12T12:38:55.022Z,10.40
2018-05-12T12:41:23.068Z,8.55
2018-05-12T12:43:51.983Z,7.05
2018-05-12T12:46:20.029Z,6.60
2018-05-12T12:48:48.078Z,9.50
2018-05-12T12:51:16.110Z,6.47
2018-05-12T12:53:44.915Z,6.80
2018-05-12T12:56:13.721Z,7.78
2018-05-12T12:58:42.548Z,7.87
2018-05-12T13:01:10.578Z,7.62
2018-05-12T13:03:40.156Z,10.65
2018-05-12T13:06:08.194Z,9.05
2018-05-12T13:08:36.998Z,8.45
2018-05-12T13:11:05.048Z,7.37
2018-05-12T13:13:33.078Z,6.40
2018-05-12T13:16:01.895Z,8.60
2018-05-12T13:18:30.696Z,6.65
2018-05-12T13:20:59.526Z,6.25
2018-05-12T13:23:27.559Z,8.60
2018-05-12T13:25:55.617Z,9.43
2018-05-12T13:28:23.643Z,20.50
2018-05-12T13:30:52.485Z,7.32
2018-05-12T13:33:20.558Z,7.35
2018-05-12T13:35:48.609Z,6.55
2018-05-12T13:38:17.413Z,7.25
2018-05-12T13:40:46.228Z,6.93
2018-05-12T13:43:14.273Z,6.10
2018-05-12T13:45:42.411Z,6.37
2018-05-12T13:48:10.400Z,9.90
2018-05-12T13:50:38.425Z,6.03
2018-05-12T13:53:06.463Z,9.40
2018-05-12T13:55:34.577Z,6.35
2018-05-12T13:58:03.302Z,7.55
2018-05-12T14:00:31.349Z,5.20
2018-05-12T14:02:59.393Z,7.90
2018-05-12T14:05:28.197Z,6.20
2018-05-12T14:07:57.016Z,5.68
2018-05-12T14:10:25.053Z,6.82
2018-05-12T14:12:53.104Z,5.85
2018-05-12T14:15:21.146Z,6.30
2018-05-12T14:17:49.946Z,7.10
2018-05-12T14:20:18.762Z,5.75
2018-05-12T14:22:47.903Z,6.40
2018-05-12T14:25:15.970Z,5.30
2018-05-12T14:27:44.010Z,5.45
2018-05-12T14:30:12.059Z,5.57
2018-05-12T14:32:40.100Z,5.35
2018-05-12T14:35:08.932Z,10.65
2018-05-12T14:37:36.968Z,9.32
2018-05-12T14:40:05.014Z,5.07
2018-05-12T14:42:33.045Z,4.87
2018-05-12T14:45:01.879Z,4.55
2018-05-12T14:47:29.919Z,7.93
2018-05-12T14:49:57.964Z,5.65
2018-05-12T14:52:26.011Z,5.37
2018-05-12T14:54:54.819Z,5.35
2018-05-12T14:57:23.638Z,6.47
2018-05-12T14:59:51.669Z,6.40
2018-05-12T15:02:19.784Z,7.05
2018-05-12T15:04:47.742Z,5.32
2018-05-12T15:07:17.290Z,4.53
2018-05-12T15:09:46.102Z,5.15
2018-05-12T15:12:14.959Z,5.10
2018-05-12T15:14:42.994Z,6.12
2018-05-12T15:17:11.062Z,6.05
2018-05-12T15:19:39.082Z,7.50
2018-05-12T15:22:07.130Z,5.25
2018-05-12T15:24:36.062Z,4.90
2018-05-12T15:27:04.110Z,5.30
2018-05-12T15:29:32.923Z,5.85
2018-05-12T15:32:01.748Z,5.32
2018-05-12T15:34:29.783Z,5.10
2018-05-12T15:36:57.822Z,4.85
2018-05-12T15:39:25.866Z,6.57
2018-05-12T15:41:53.911Z,5.47
2018-05-12T15:44:21.946Z,4.62
2018-05-12T15:46:50.758Z,6.68
2018-05-12T15:49:18.794Z,5.03
2018-05-12T15:51:46.839Z,7.57
2018-05-12T15:54:14.874Z,5.45
2018-05-12T15:56:42.965Z,8.07
2018-05-12T15:59:10.978Z,6.45
2018-05-12T16:01:39.072Z,5.07
2018-05-12T16:04:07.129Z,9.07
2018-05-12T16:06:35.948Z,5.20
2018-05-12T16:09:04.811Z,6.35
2018-05-12T16:11:32.850Z,5.68
2018-05-12T16:14:00.885Z,5.55
2018-05-12T16:16:28.938Z,5.80
2018-05-12T16:18:56.971Z,6.05
2018-05-12T16:21:25.778Z,4.90
2018-05-12T16:23:54.586Z,28.48
2018-05-12T16:26:23.414Z,7.30
2018-05-12T16:28:51.450Z,7.80
2018-05-12T16:31:19.674Z,6.37
2018-05-12T16:33:47.625Z,4.85
2018-05-12T16:36:15.664Z,4.75
2018-05-12T16:38:43.711Z,5.12
2018-05-12T16:41:12.510Z,5.25
2018-05-12T16:43:41.318Z,6.78
2018-05-12T16:46:10.130Z,5.75
2018-05-12T16:48:38.173Z,5.57
2018-05-12T16:51:06.248Z,8.30
2018-05-12T16:53:34.259Z,5.95
2018-05-12T16:56:03.062Z,5.53
2018-05-12T16:58:31.869Z,7.15
2018-05-12T17:01:00.671Z,5.57
2018-05-12T17:03:29.532Z,7.40
2018-05-12T17:05:57.573Z,6.57
2018-05-12T17:08:25.726Z,6.78
2018-05-12T17:10:53.846Z,5.35
2018-05-12T17:13:21.941Z,8.50
2018-05-12T17:15:49.930Z,5.97
2018-05-12T17:18:17.978Z,8.02
2018-05-12T17:20:46.786Z,6.87
2018-05-12T17:23:15.637Z,5.62
2018-05-12T17:25:43.646Z,7.87
2018-05-12T17:28:11.694Z,11.90
2018-05-12T17:30:39.730Z,8.13
2018-05-12T17:33:08.542Z,7.10
2018-05-12T17:35:37.347Z,6.07
2018-05-12T17:38:06.154Z,5.93
2018-05-12T17:40:34.971Z,5.95
2018-05-12T17:43:03.030Z,10.57
2018-05-12T17:45:31.834Z,5.80
2018-05-12T17:48:00.646Z,6.35
2018-05-12T17:50:29.445Z,7.60
2018-05-12T17:52:58.259Z,6.30
2018-05-12T17:55:26.293Z,6.55
2018-05-12T17:57:54.340Z,7.37
2018-05-12T18:00:22.376Z,7.93
2018-05-12T18:02:50.462Z,8.02
2018-05-12T18:05:18.502Z,7.18
2018-05-12T18:07:46.545Z,6.83
2018-05-12T18:10:15.358Z,7.10
2018-05-12T18:12:44.170Z,8.20
2018-05-12T18:15:12.215Z,6.80
2018-05-12T18:17:40.266Z,16.60
2018-05-12T18:20:08.309Z,17.23
2018-05-12T18:22:37.120Z,10.70
2018-05-12T18:25:05.166Z,8.20
2018-05-12T18:27:33.976Z,6.30
2018-05-12T18:30:02.016Z,7.70
2018-05-12T18:32:30.074Z,6.87
2018-05-12T18:34:58.114Z,6.50
2018-05-12T18:37:26.155Z,7.73
2018-05-12T18:39:54.195Z,6.47
2018-05-12T18:42:23.005Z,9.30
2018-05-12T18:44:51.281Z,6.27
2018-05-12T18:47:19.313Z,6.90
2018-05-12T18:49:47.358Z,10.87
2018-05-12T18:52:15.403Z,9.40
2018-05-12T18:54:43.645Z,9.57
2018-05-12T18:57:12.532Z,8.30
2018-05-12T18:59:41.296Z,10.17
2018-05-12T19:02:09.326Z,6.60
2018-05-12T19:04:38.209Z,7.10
2018-05-12T19:07:06.950Z,6.93
2018-05-12T19:09:34.995Z,6.53
2018-05-12T19:12:03.033Z,6.47
2018-05-12T19:14:31.082Z,8.33
2018-05-12T19:16:59.908Z,7.10
2018-05-12T19:19:28.698Z,7.43
2018-05-12T19:21:57.519Z,8.13
2018-05-12T19:24:25.569Z,6.33
2018-05-12T19:26:53.718Z,8.90
2018-05-12T19:29:21.778Z,6.77
2018-05-12T19:31:49.819Z,6.37
2018-05-12T19:34:17.900Z,6.63
2018-05-12T19:36:45.944Z,9.97
2018-05-12T19:39:14.011Z,11.03
2018-05-12T19:41:42.046Z,7.03
2018-05-12T19:44:10.168Z,6.37
2018-05-12T19:46:38.965Z,6.70
2018-05-12T19:49:07.905Z,7.50
2018-05-12T19:51:35.889Z,8.20
2018-05-12T19:54:03.968Z,11.83
2018-05-12T19:56:32.046Z,7.60
2018-05-12T19:59:00.106Z,6.40
2018-05-12T20:01:28.925Z,7.97
2018-05-12T20:03:57.015Z,6.77
2018-05-12T20:06:25.011Z,6.97
2018-05-12T20:08:53.071Z,6.90
2018-05-12T20:11:21.113Z,6.10
2018-05-12T20:13:49.273Z,8.07
2018-05-12T20:16:17.358Z,7.03
2018-05-12T20:18:45.394Z,6.13
2018-05-12T20:21:14.205Z,8.23
2018-05-12T20:23:43.010Z,6.80
2018-05-12T20:26:11.818Z,6.07
2018-05-12T20:28:39.854Z,6.33
2018-05-12T20:31:07.932Z,6.87
2018-05-12T20:33:35.938Z,6.17
2018-05-12T20:36:03.994Z,7.27
2018-05-12T20:38:32.039Z,7.30
2018-05-12T20:41:00.079Z,7.60
2018-05-12T20:43:28.115Z,8.43
2018-05-12T20:45:56.154Z,7.30
2018-05-12T20:48:24.194Z,7.70
2018-05-12T20:50:52.239Z,7.03
2018-05-12T20:53:21.042Z,5.57
2018-05-12T20:55:49.897Z,5.97
2018-05-12T20:58:17.930Z,6.30
2018-05-12T21:00:46.746Z,7.30
2018-05-12T21:03:15.541Z,6.63
2018-05-12T21:05:44.360Z,7.60
2018-05-12T21:08:12.398Z,7.90
2018-05-12T21:10:40.438Z,7.27
2018-05-12T21:13:08.472Z,7.23
2018-05-12T21:15:36.516Z,6.70
2018-05-12T21:18:04.545Z,6.50
2018-05-12T21:20:32.598Z,8.07
2018-05-12T21:23:00.627Z,7.23
2018-05-12T21:25:29.450Z,5.87
2018-05-12T21:27:57.485Z,6.00
2018-05-12T21:30:25.518Z,5.30
2018-05-12T21:32:53.723Z,6.20
2018-05-12T21:35:21.739Z,6.53
2018-05-12T21:37:49.787Z,6.50
2018-05-12T21:40:17.821Z,5.63
2018-05-12T21:42:45.862Z,6.67
2018-05-12T21:45:13.907Z,6.27
2018-05-12T21:47:42.803Z,8.63
2018-05-12T21:50:10.777Z,5.70
2018-05-12T21:52:39.581Z,6.33
2018-05-12T21:55:07.618Z,6.43
2018-05-12T21:57:35.663Z,5.97
2018-05-12T22:00:04.466Z,7.87
2018-05-12T22:02:33.281Z,6.07
2018-05-12T22:05:01.314Z,10.10
2018-05-12T22:07:29.362Z,6.47
2018-05-12T22:12:22.949Z,5.93
2018-05-12T22:14:51.749Z,6.03
2018-05-12T22:17:20.574Z,7.73
2018-05-12T22:19:48.608Z,5.83
2018-05-12T22:22:16.654Z,5.80
2018-05-12T22:24:44.697Z,6.60
2018-05-12T22:27:12.741Z,7.40
2018-05-12T22:29:40.775Z,6.17
2018-05-12T22:32:08.815Z,6.30
2018-05-12T22:34:36.850Z,6.30
2018-05-12T22:37:05.757Z,8.97
2018-05-12T22:39:33.869Z,8.53
2018-05-12T22:42:01.842Z,6.83
2018-05-12T22:44:29.881Z,7.33
2018-05-12T22:46:57.922Z,9.27
2018-05-12T22:49:25.958Z,7.57
2018-05-12T22:51:54.787Z,7.67
2018-05-12T22:54:22.870Z,6.70
2018-05-12T22:56:50.916Z,7.60
2018-05-12T22:59:18.946Z,6.43
2018-05-12T23:01:47.010Z,6.40
2018-05-12T23:04:15.814Z,7.03
2018-05-12T23:06:44.618Z,7.77
2018-05-12T23:09:13.426Z,8.00
2018-05-12T23:11:41.462Z,6.43
2018-05-12T23:14:09.510Z,8.60
2018-05-12T23:16:37.541Z,7.80
2018-05-12T23:19:05.594Z,7.33
2018-05-12T23:21:33.622Z,8.00
2018-05-12T23:24:02.434Z,8.07
2018-05-12T23:26:31.229Z,8.13
2018-05-12T23:29:00.043Z,7.40
2018-05-12T23:31:28.841Z,8.30
2018-05-12T23:33:57.659Z,6.90
2018-05-12T23:36:25.702Z,6.70
2018-05-12T23:38:53.754Z,8.67
2018-05-12T23:41:21.794Z,8.30
2018-05-12T23:43:50.628Z,6.27
2018-05-12T23:46:18.646Z,6.40
2018-05-12T23:48:46.693Z,7.83
2018-05-12T23:51:14.755Z,6.80
2018-05-12T23:53:42.772Z,6.77
2018-05-12T23:56:10.806Z,6.43
2018-05-12T23:58:39.622Z,6.70
